Time;durP1;ratioP1;P1;durP2;ratioP2;P2;SDS_P1;SDS_P2;PMS_P1;PMS_P2;Temp;Humidity;BMP_temperature;BMP_pressure;BME280_temperature;BME280_humidity;BME280_pressure;Samples;Min_cycle;Max_cycle;Signal;HPM_P1;HPM_P2
2023/07/28 00:01:29;;;;;;;1.85;1.17;;;;;;;12.73;76.38;99337.16;5047224;28;20117;-61
2023/07/28 00:03:55;;;;;;;2.35;1.40;;;;;;;12.69;76.56;99339.03;5047121;28;20470;-60
2023/07/28 00:06:20;;;;;;;4.35;1.55;;;;;;;12.67;76.66;99334.78;5047172;28;20029;-61
2023/07/28 00:08:46;;;;;;;2.40;1.90;;;;;;;12.63;76.52;99334.03;5047130;28;20110;-59
2023/07/28 00:11:13;;;;;;;2.03;1.33;;;;;;;12.56;77.01;99335.97;5046794;28;20021;-59
2023/07/28 00:13:39;;;;;;;3.55;1.50;;;;;;;12.54;77.55;99329.13;5046864;28;20051;-59
2023/07/28 00:16:05;;;;;;;1.35;1.05;;;;;;;12.57;77.17;99326.44;5046734;28;20081;-60
2023/07/28 00:18:30;;;;;;;2.78;1.83;;;;;;;12.60;77.44;99327.16;5046607;28;20037;-59
2023/07/28 00:20:55;;;;;;;2.42;1.48;;;;;;;12.62;77.21;99333.16;5046778;28;20517;-59
2023/07/28 00:23:21;;;;;;;1.88;1.33;;;;;;;12.63;76.96;99331.41;5046721;28;20027;-60
2023/07/28 00:25:46;;;;;;;1.95;1.33;;;;;;;12.59;76.81;99328.06;5046643;28;20079;-60
2023/07/28 00:28:12;;;;;;;2.35;1.42;;;;;;;12.56;76.95;99327.31;5046558;28;20028;-59
2023/07/28 00:30:37;;;;;;;2.25;1.85;;;;;;;12.56;76.85;99332.53;5046955;28;20026;-59
2023/07/28 00:33:03;;;;;;;1.20;1.10;;;;;;;12.57;76.96;99329.84;5046711;28;20025;-59
2023/07/28 00:35:28;;;;;;;1.38;1.27;;;;;;;12.54;77.04;99329.13;5046282;28;20025;-60
2023/07/28 00:37:53;;;;;;;7.22;1.80;;;;;;;12.55;76.91;99328.22;5046539;28;20032;-60
2023/07/28 00:40:19;;;;;;;2.00;1.35;;;;;;;12.45;77.14;99318.13;5046630;28;20029;-59
2023/07/28 00:42:45;;;;;;;7.18;1.70;;;;;;;12.53;76.87;99333.47;5045995;28;20060;-60
2023/07/28 00:45:10;;;;;;;4.70;1.55;;;;;;;12.50;77.25;99334.44;5046566;28;20087;-60
2023/07/28 00:47:36;;;;;;;4.35;1.30;;;;;;;12.48;77.26;99322.38;5045817;28;20021;-60
2023/07/28 00:50:03;;;;;;;2.15;1.73;;;;;;;12.54;76.94;99327.38;5046255;28;20100;-60
2023/07/28 00:52:28;;;;;;;5.40;1.88;;;;;;;12.56;77.18;99325.56;5046394;28;20018;-59
2023/07/28 00:54:54;;;;;;;2.30;1.30;;;;;;;12.55;77.06;99331.69;5046309;28;20081;-59
2023/07/28 00:57:19;;;;;;;5.18;1.40;;;;;;;12.56;77.17;99330.78;5046040;28;20021;-60
2023/07/28 00:59:45;;;;;;;1.90;1.30;;;;;;;12.54;76.95;99324.75;5045965;28;20053;-59
2023/07/28 01:02:11;;;;;;;4.38;1.33;;;;;;;12.58;76.79;99334.19;5046300;28;20025;-59
2023/07/28 01:04:37;;;;;;;5.60;2.00;;;;;;;12.54;76.76;99339.56;5045902;28;20457;-60
2023/07/28 01:07:05;;;;;;;3.97;1.60;;;;;;;12.51;76.81;99336.13;5045756;28;20029;-60
2023/07/28 01:09:43;;;;;;;2.33;1.63;;;;;;;12.46;77.17;99334.59;5045860;28;20064;-59
2023/07/28 01:12:11;;;;;;;3.83;1.75;;;;;;;12.43;77.49;99332.09;5045853;28;20021;-60
2023/07/28 01:14:37;;;;;;;3.53;1.80;;;;;;;12.38;77.85;99333.09;5045879;28;20075;-59
2023/07/28 01:17:02;;;;;;;6.20;1.27;;;;;;;12.35;77.82;99319.31;5045740;28;20051;-60
2023/07/28 01:19:28;;;;;;;3.15;1.75;;;;;;;12.40;77.77;99322.63;5046060;28;20100;-60
2023/07/28 01:22:20;;;;;;;1.20;1.00;;;;;;;12.44;78.18;99319.03;5045600;28;20025;-60
2023/07/28 01:24:50;;;;;;;2.80;1.40;;;;;;;12.48;78.05;99325.84;4994926;28;20133;-60
2023/07/28 01:27:17;;;;;;;3.00;1.77;;;;;;;12.50;78.00;99325.78;5045325;28;20033;-60
2023/07/28 01:29:44;;;;;;;1.60;1.35;;;;;;;12.52;77.91;99326.59;5045417;28;20026;-59
2023/07/28 01:32:11;;;;;;;1.67;1.23;;;;;;;12.55;78.11;99325.63;5045695;28;20053;-59
2023/07/28 01:34:36;;;;;;;7.35;1.63;;;;;;;12.53;77.88;99320.47;5045580;28;20029;-59
2023/07/28 01:37:02;;;;;;;3.28;1.38;;;;;;;12.57;78.18;99324.66;5045304;28;20048;-59
2023/07/28 01:39:27;;;;;;;2.13;1.35;;;;;;;12.57;77.83;99332.47;5045468;28;20029;-60
2023/07/28 01:41:53;;;;;;;4.75;1.42;;;;;;;12.54;77.74;99324.75;5045095;28;20032;-59
2023/07/28 01:44:18;;;;;;;5.38;1.52;;;;;;;12.58;77.93;99328.13;5045400;28;20028;-59
2023/07/28 01:46:44;;;;;;;3.80;1.67;;;;;;;12.59;78.04;99327.19;5045016;28;20037;-59
2023/07/28 01:49:09;;;;;;;3.85;1.92;;;;;;;12.69;78.03;99328.59;5045117;28;20039;-59
2023/07/28 01:51:34;;;;;;;2.35;1.17;;;;;;;12.73;77.97;99330.19;5045548;28;20025;-59
2023/07/28 01:54:00;;;;;;;4.45;1.30;;;;;;;12.73;78.20;99324.16;5045054;28;20037;-60
2023/07/28 01:56:25;;;;;;;3.47;1.35;;;;;;;12.78;78.16;99330.03;5045304;28;20025;-60
2023/07/28 01:58:50;;;;;;;2.63;1.30;;;;;;;12.73;78.37;99311.97;5045351;28;20025;-60
2023/07/28 02:01:16;;;;;;;3.80;1.58;;;;;;;12.78;78.36;99324.81;5045072;28;20523;-60
2023/07/28 02:03:41;;;;;;;5.88;1.63;;;;;;;12.80;78.67;99336.03;5044782;28;20037;-59
2023/07/28 02:06:07;;;;;;;3.25;1.98;;;;;;;12.79;78.55;99331.75;5045027;28;20056;-60
2023/07/28 02:08:32;;;;;;;2.20;1.55;;;;;;;12.80;78.60;99320.41;5045475;28;20041;-60
2023/07/28 02:10:57;;;;;;;1.95;1.58;;;;;;;12.78;78.39;99324.81;5049416;28;20029;-59
2023/07/28 02:13:23;;;;;;;7.50;1.98;;;;;;;12.74;78.19;99325.84;5048842;28;20053;-59
2023/07/28 02:15:48;;;;;;;1.88;1.67;;;;;;;12.66;78.32;99333.06;5049083;28;20520;-60
2023/07/28 02:18:13;;;;;;;1.73;1.25;;;;;;;12.62;78.23;99321.91;5049119;28;20498;-61
2023/07/28 02:20:39;;;;;;;3.47;1.20;;;;;;;12.57;78.36;99327.25;5049073;28;20025;-60
2023/07/28 02:23:04;;;;;;;1.60;1.27;;;;;;;12.53;78.14;99323.06;5049179;28;20032;-61
2023/07/28 02:25:30;;;;;;;2.33;1.65;;;;;;;12.47;78.08;99324.13;5048851;28;20030;-58
2023/07/28 02:27:55;;;;;;;2.65;1.60;;;;;;;12.29;78.00;99309.97;5048848;28;20033;-60
2023/07/28 02:30:21;;;;;;;1.75;1.27;;;;;;;12.35;78.30;99322.78;5031151;28;20029;-61
2023/07/28 02:32:46;;;;;;;1.92;1.67;;;;;;;12.31;78.23;99323.81;5048936;28;20029;-60
2023/07/28 02:35:11;;;;;;;2.25;1.48;;;;;;;12.29;78.33;99329.94;5048940;28;20028;-60
2023/07/28 02:37:37;;;;;;;7.45;1.55;;;;;;;12.25;78.56;99337.00;5048871;28;20071;-60
2023/07/28 02:40:03;;;;;;;1.63;1.27;;;;;;;12.18;78.88;99331.16;5049113;28;20390;-61
2023/07/28 02:42:28;;;;;;;4.68;1.67;;;;;;;12.16;78.66;99332.94;5048417;28;20026;-58
2023/07/28 02:44:54;;;;;;;5.80;2.08;;;;;;;12.13;78.94;99338.25;5048685;28;20092;-59
2023/07/28 02:47:19;;;;;;;3.60;1.83;;;;;;;12.10;78.72;99336.59;5048309;28;20023;-59
2023/07/28 02:49:45;;;;;;;3.60;1.77;;;;;;;12.03;78.74;99330.72;5048564;28;20036;-57
2023/07/28 02:52:11;;;;;;;1.98;1.45;;;;;;;12.06;78.70;99341.94;5048741;28;20040;-60
2023/07/28 02:54:36;;;;;;;2.00;1.60;;;;;;;12.03;78.71;99343.72;5048855;28;20017;-59
2023/07/28 02:57:01;;;;;;;2.58;1.95;;;;;;;12.04;78.54;99347.19;5048225;28;20028;-59
2023/07/28 02:59:27;;;;;;;3.00;1.48;;;;;;;12.06;78.52;99342.75;5048378;28;20029;-59
2023/07/28 03:01:52;;;;;;;3.15;2.30;;;;;;;12.06;78.42;99345.34;5048632;28;20047;-59
2023/07/28 03:04:20;;;;;;;3.42;1.65;;;;;;;12.04;78.44;99336.78;5048652;28;20477;-58
2023/07/28 03:06:46;;;;;;;9.98;1.70;;;;;;;12.10;78.46;99341.81;5048446;28;20014;-60
2023/07/28 03:09:12;;;;;;;3.35;2.10;;;;;;;12.14;78.77;99352.97;5048394;28;20031;-60
2023/07/28 03:11:37;;;;;;;3.00;1.92;;;;;;;12.14;78.93;99350.38;5047801;28;20049;-59
2023/07/28 03:14:02;;;;;;;2.33;1.25;;;;;;;12.16;78.83;99347.72;5048017;28;20053;-59
2023/07/28 03:16:28;;;;;;;7.78;1.85;;;;;;;12.16;79.44;99347.72;5048080;28;20093;-60
2023/07/28 03:18:53;;;;;;;4.00;1.20;;;;;;;12.17;79.28;99355.47;5048230;28;20025;-59
2023/07/28 03:21:18;;;;;;;2.83;1.77;;;;;;;12.21;79.37;99351.88;5047663;28;20473;-59
2023/07/28 03:23:44;;;;;;;2.00;1.55;;;;;;;12.27;79.29;99353.41;5048137;28;20033;-59
2023/07/28 03:26:09;;;;;;;2.47;1.88;;;;;;;12.33;79.66;99354.97;5047938;28;20072;-60
2023/07/28 03:28:35;;;;;;;2.38;1.48;;;;;;;12.56;79.88;99350.75;5047380;28;20025;-59
2023/07/28 03:31:00;;;;;;;2.63;1.45;;;;;;;12.87;80.64;99353.16;5047711;28;20026;-60
2023/07/28 03:33:25;;;;;;;4.68;1.63;;;;;;;13.23;80.77;99353.63;5047787;28;20028;-60
2023/07/28 03:35:51;;;;;;;3.55;1.83;;;;;;;13.60;81.71;99362.75;5047721;28;20029;-60
2023/07/28 03:38:16;;;;;;;2.78;1.70;;;;;;;13.99;82.11;99348.19;5048107;28;20489;-59
2023/07/28 03:40:43;;;;;;;1.92;1.38;;;;;;;14.40;82.08;99361.41;5047598;28;20489;-60
2023/07/28 03:43:09;;;;;;;3.83;1.63;;;;;;;14.62;81.85;99349.16;5047429;28;20055;-60
2023/07/28 03:45:34;;;;;;;3.38;1.50;;;;;;;14.92;82.47;99360.97;5047447;28;20064;-60
2023/07/28 03:47:59;;;;;;;2.67;1.85;;;;;;;15.19;82.51;99354.63;5047390;28;20477;-59
2023/07/28 03:50:26;;;;;;;1.67;1.50;;;;;;;15.59;82.62;99352.78;5047494;28;20025;-60
2023/07/28 03:52:51;;;;;;;2.45;1.90;;;;;;;16.07;83.69;99354.97;5047362;28;20029;-60
2023/07/28 03:55:17;;;;;;;2.85;1.67;;;;;;;16.63;85.01;99345.31;5047602;28;20025;-61
2023/07/28 03:57:42;;;;;;;1.80;1.58;;;;;;;17.19;84.91;99343.28;5047304;28;20112;-60
2023/07/28 04:00:08;;;;;;;7.72;1.85;;;;;;;17.78;84.80;99348.94;5047190;28;20025;-60
2023/07/28 04:02:34;;;;;;;1.52;1.27;;;;;;;18.27;85.19;99347.97;5046981;28;20036;-61
2023/07/28 04:04:59;;;;;;;3.55;2.25;;;;;;;18.89;85.62;99342.63;5047111;28;20029;-61
2023/07/28 04:07:25;;;;;;;2.08;1.60;;;;;;;19.43;84.77;99343.75;5047293;28;20041;-61
2023/07/28 04:09:50;;;;;;;2.97;1.73;;;;;;;19.90;83.54;99348.75;5047115;28;20026;-61
2023/07/28 04:12:15;;;;;;;4.82;1.63;;;;;;;20.24;83.49;99353.63;5047062;28;20022;-60
2023/07/28 04:14:41;;;;;;;2.20;1.50;;;;;;;20.66;83.35;99356.13;5046760;28;20049;-61
2023/07/28 04:17:06;;;;;;;4.05;1.52;;;;;;;21.10;83.18;99355.84;5047022;28;20032;-61
2023/07/28 04:19:33;;;;;;;2.72;1.70;;;;;;;21.57;82.68;99355.22;5046851;28;20026;-61
2023/07/28 04:21:59;;;;;;;4.90;2.25;;;;;;;21.97;81.21;99352.38;5047096;28;20013;-60
2023/07/28 04:24:25;;;;;;;1.20;1.08;;;;;;;22.27;80.70;99352.84;5046912;28;20104;-61
2023/07/28 04:26:50;;;;;;;1.50;1.13;;;;;;;22.46;79.65;99351.47;5046065;28;20037;-61
2023/07/28 04:29:16;;;;;;;2.70;1.20;;;;;;;22.77;79.84;99370.31;5046580;28;20026;-61
2023/07/28 04:31:41;;;;;;;2.08;1.13;;;;;;;23.20;80.37;99360.84;5046023;28;20079;-61
2023/07/28 04:34:07;;;;;;;1.48;1.10;;;;;;;23.55;80.04;99361.69;5046454;28;20026;-61
2023/07/28 04:36:32;;;;;;;1.90;1.08;;;;;;;23.81;78.99;99352.59;5046746;28;20033;-60
2023/07/28 04:38:58;;;;;;;1.33;1.08;;;;;;;24.10;78.43;99354.69;5046455;28;20026;-61
2023/07/28 04:41:23;;;;;;;1.02;0.70;;;;;;;24.41;77.85;99359.28;5046085;28;20028;-62
2023/07/28 04:43:49;;;;;;;3.53;1.00;;;;;;;24.70;76.22;99354.16;5046437;28;20036;-60
2023/07/28 04:46:14;;;;;;;2.30;0.80;;;;;;;25.07;74.98;99354.63;5046275;28;20080;-61
2023/07/28 04:48:39;;;;;;;1.75;1.00;;;;;;;25.42;73.05;99356.03;5046246;28;20060;-61
2023/07/28 04:51:05;;;;;;;0.63;0.50;;;;;;;25.80;72.65;99356.28;5046265;28;20025;-61
2023/07/28 04:53:30;;;;;;;0.88;0.77;;;;;;;26.29;72.29;99359.94;5046061;28;20499;-61
2023/07/28 04:55:56;;;;;;;0.70;0.60;;;;;;;26.57;72.16;99365.38;5045962;28;20044;-61
2023/07/28 04:58:21;;;;;;;3.17;0.85;;;;;;;26.81;68.28;99364.91;5028388;28;20051;-61
2023/07/28 05:00:46;;;;;;;0.88;0.65;;;;;;;27.04;63.95;99363.75;5045870;28;20022;-60
2023/07/28 05:03:12;;;;;;;0.43;0.40;;;;;;;27.42;67.02;99356.56;5046121;28;20037;-61
2023/07/28 05:05:37;;;;;;;0.70;0.50;;;;;;;27.89;66.77;99360.09;5046100;28;20021;-61
2023/07/28 05:08:03;;;;;;;1.00;0.50;;;;;;;28.15;65.79;99356.66;5045858;28;20021;-61
2023/07/28 05:10:28;;;;;;;1.30;0.52;;;;;;;28.30;64.50;99354.28;5046151;28;20389;-62
2023/07/28 05:12:53;;;;;;;0.65;0.45;;;;;;;28.66;64.50;99368.56;5045514;28;20025;-62
2023/07/28 05:15:19;;;;;;;1.23;0.77;;;;;;;28.86;63.21;99363.84;5046085;28;20017;-61
2023/07/28 05:17:44;;;;;;;1.70;0.80;;;;;;;29.14;62.65;99363.69;5045636;28;20040;-61
2023/07/28 05:20:10;;;;;;;0.90;0.60;;;;;;;29.36;61.45;99364.13;5045636;28;20100;-62
2023/07/28 05:22:35;;;;;;;0.70;0.55;;;;;;;29.28;57.23;99361.41;5045368;28;20105;-61
2023/07/28 05:25:01;;;;;;;1.08;0.60;;;;;;;29.37;56.02;99365.78;5045637;28;20030;-61
2023/07/28 05:27:26;;;;;;;1.02;0.70;;;;;;;29.84;57.37;99365.44;5045647;28;20025;-61
2023/07/28 05:29:52;;;;;;;0.88;0.70;;;;;;;29.97;56.54;99359.59;5045733;28;20085;-61
2023/07/28 05:32:17;;;;;;;0.80;0.52;;;;;;;30.14;56.14;99361.28;5045866;28;20032;-61
2023/07/28 05:34:43;;;;;;;1.85;0.60;;;;;;;30.22;55.29;99365.84;5045449;28;20052;-62
2023/07/28 05:37:09;;;;;;;1.38;0.47;;;;;;;30.21;54.35;99358.78;5045531;28;20056;-61
2023/07/28 05:39:34;;;;;;;0.40;0.30;;;;;;;30.47;54.50;99356.94;5045108;28;20029;-61
2023/07/28 05:41:59;;;;;;;2.15;0.75;;;;;;;30.44;53.59;99352.75;5045303;28;20037;-61
2023/07/28 05:44:25;;;;;;;0.52;0.40;;;;;;;30.32;52.96;99352.28;5044540;28;20025;-61
2023/07/28 05:46:50;;;;;;;0.65;0.50;;;;;;;30.13;51.79;99362.25;5044878;28;20037;-61
2023/07/28 05:49:16;;;;;;;0.68;0.68;;;;;;;29.94;51.01;99361.59;5044856;28;20128;-62
2023/07/28 05:51:41;;;;;;;0.50;0.40;;;;;;;29.89;50.44;99358.56;5045110;28;20025;-61
2023/07/28 05:54:07;;;;;;;1.63;0.50;;;;;;;29.66;49.25;99358.38;5044962;28;20028;-62
2023/07/28 05:56:32;;;;;;;0.60;0.50;;;;;;;29.60;48.37;99351.84;5045478;28;20025;-61
2023/07/28 05:58:57;;;;;;;2.65;0.65;;;;;;;29.55;48.00;99359.50;5045358;28;20032;-61
2023/07/28 06:01:25;;;;;;;0.50;0.50;;;;;;;29.55;48.26;99344.25;5045387;28;20021;-62
2023/07/28 06:03:51;;;;;;;0.95;0.55;;;;;;;29.63;48.59;99353.34;5043567;28;20022;-62
2023/07/28 06:06:18;;;;;;;0.63;0.32;;;;;;;29.44;48.11;99356.09;5043466;28;20079;-62
2023/07/28 06:08:43;;;;;;;0.38;0.38;;;;;;;29.73;47.80;99361.22;5045243;28;20077;-61
2023/07/28 06:11:09;;;;;;;0.32;0.30;;;;;;;29.79;48.20;99349.88;5045259;28;20028;-61
2023/07/28 06:13:34;;;;;;;2.85;0.40;;;;;;;29.93;46.25;99356.41;5044866;28;20180;-61
2023/07/28 06:16:00;;;;;;;0.20;0.20;;;;;;;30.11;45.59;99363.44;5045113;28;20085;-61
2023/07/28 06:18:25;;;;;;;0.90;0.55;;;;;;;30.10;44.22;99359.94;5045020;28;20026;-61
2023/07/28 06:20:51;;;;;;;0.30;0.30;;;;;;;30.14;42.31;99360.44;5044892;28;20036;-61
2023/07/28 06:23:16;;;;;;;0.73;0.40;;;;;;;29.98;40.34;99355.91;5045240;28;20373;-61
2023/07/28 06:25:45;;;;;;;0.77;0.65;;;;;;;29.68;40.00;99361.72;5045118;28;20021;-62
2023/07/28 06:28:12;;;;;;;0.38;0.38;;;;;;;29.84;40.75;99362.75;5044579;28;20029;-62
2023/07/28 06:30:38;;;;;;;2.28;0.50;;;;;;;29.63;41.81;99367.56;5044862;28;20470;-62
2023/07/28 06:33:05;;;;;;;1.58;0.75;;;;;;;29.15;42.25;99372.53;5044904;28;20056;-61
2023/07/28 06:35:30;;;;;;;0.40;0.40;;;;;;;28.94;41.30;99371.06;5044593;28;20025;-62
2023/07/28 06:37:56;;;;;;;1.00;0.65;;;;;;;29.29;41.68;99374.59;5044648;28;20451;-62
2023/07/28 06:40:21;;;;;;;1.13;0.57;;;;;;;29.75;41.58;99380.59;5045038;28;20021;-61
2023/07/28 06:42:47;;;;;;;0.90;0.68;;;;;;;29.93;41.42;99369.78;5044473;28;20121;-60
2023/07/28 06:45:13;;;;;;;1.42;0.57;;;;;;;30.08;39.70;99369.97;5043351;28;20018;-62
2023/07/28 06:47:39;;;;;;;1.10;0.60;;;;;;;30.17;39.49;99368.97;5044929;28;20021;-61
2023/07/28 06:50:05;;;;;;;0.85;0.60;;;;;;;29.75;39.36;99372.59;5044685;28;20029;-61
2023/07/28 06:52:30;;;;;;;0.45;0.40;;;;;;;29.42;38.51;99371.50;5045042;28;20446;-62
2023/07/28 06:54:56;;;;;;;0.50;0.40;;;;;;;28.92;37.90;99376.56;5045554;28;20101;-62
2023/07/28 06:57:21;;;;;;;0.77;0.38;;;;;;;27.99;37.89;99384.00;5048307;28;20473;-62
2023/07/28 06:59:47;;;;;;;0.20;0.20;;;;;;;27.03;38.83;99388.72;5048435;28;20025;-62
2023/07/28 07:02:13;;;;;;;0.40;0.40;;;;;;;26.17;39.76;99392.00;5048303;28;20081;-62
2023/07/28 07:04:38;;;;;;;0.63;0.43;;;;;;;26.05;40.87;99390.44;5048541;28;20021;-62
2023/07/28 07:07:04;;;;;;;0.47;0.32;;;;;;;26.59;40.99;99392.69;5048168;28;20025;-62
2023/07/28 07:09:29;;;;;;;0.93;0.40;;;;;;;26.91;38.73;99391.50;5030585;28;20548;-61
2023/07/28 07:11:55;;;;;;;0.73;0.63;;;;;;;26.94;38.27;99391.22;5048001;28;20393;-60
2023/07/28 07:14:20;;;;;;;2.90;0.57;;;;;;;27.40;39.83;99382.50;5048303;28;20049;-61
2023/07/28 07:16:46;;;;;;;2.35;0.70;;;;;;;27.92;39.33;99389.13;5047833;28;20089;-61
2023/07/28 07:19:13;;;;;;;0.47;0.35;;;;;;;27.70;36.87;99385.88;5048035;28;20087;-62
2023/07/28 07:21:38;;;;;;;1.35;0.57;;;;;;;27.04;38.20;99395.72;5048044;28;20094;-62
2023/07/28 07:24:04;;;;;;;2.60;0.77;;;;;;;26.15;38.37;99396.59;5047922;28;20025;-60
2023/07/28 07:26:31;;;;;;;1.15;0.38;;;;;;;25.25;39.41;99397.34;5047960;28;20024;-60
2023/07/28 07:28:56;;;;;;;0.43;0.28;;;;;;;24.72;40.75;99396.47;5047675;28;20030;-61
2023/07/28 07:31:22;;;;;;;0.50;0.40;;;;;;;25.04;41.56;99402.69;5047763;28;20105;-60
2023/07/28 07:33:47;;;;;;;1.23;0.60;;;;;;;25.73;41.03;99395.88;5047901;28;20055;-62
2023/07/28 07:36:16;;;;;;;0.40;0.40;;;;;;;26.29;39.06;99395.38;5047538;28;20068;-62
2023/07/28 07:38:42;;;;;;;0.40;0.40;;;;;;;27.11;39.13;99402.13;5047661;28;20031;-61
2023/07/28 07:41:10;;;;;;;0.52;0.47;;;;;;;27.87;38.64;99395.88;5047708;28;20462;-62
2023/07/28 07:43:35;;;;;;;0.40;0.30;;;;;;;28.46;38.79;99398.13;5047513;28;20045;-63
2023/07/28 07:46:00;;;;;;;1.02;0.52;;;;;;;28.90;35.97;99396.44;5047233;28;20017;-62
2023/07/28 07:48:26;;;;;;;0.40;0.30;;;;;;;29.10;35.96;99407.75;5047407;28;20036;-61
2023/07/28 07:50:51;;;;;;;0.57;0.40;;;;;;;29.34;35.16;99411.53;5047463;28;20066;-61
2023/07/28 07:53:17;;;;;;;0.60;0.30;;;;;;;29.81;35.47;99404.03;5047386;28;20029;-61
2023/07/28 07:55:43;;;;;;;0.28;0.28;;;;;;;30.04;33.59;99406.09;5047355;28;20423;-62
2023/07/28 07:58:08;;;;;;;0.47;0.35;;;;;;;30.14;33.39;99408.59;5047747;28;20077;-61
2023/07/28 08:00:34;;;;;;;1.52;0.50;;;;;;;30.31;33.54;99396.09;5047089;28;20021;-61
2023/07/28 08:02:59;;;;;;;0.47;0.43;;;;;;;30.76;33.88;99411.78;5045708;28;20044;-63
2023/07/28 08:05:25;;;;;;;2.03;0.35;;;;;;;30.96;34.31;99411.47;5047039;28;20048;-62
2023/07/28 08:07:50;;;;;;;0.20;0.20;;;;;;;31.07;32.08;99419.16;5046217;28;20036;-62
2023/07/28 08:10:16;;;;;;;1.13;0.40;;;;;;;31.26;32.69;99417.88;5047290;28;20029;-61
2023/07/28 08:12:44;;;;;;;1.77;0.50;;;;;;;31.69;32.28;99418.56;5047044;28;20033;-61
2023/07/28 08:15:10;;;;;;;0.55;0.45;;;;;;;31.93;32.76;99417.59;5045605;28;20414;-61
2023/07/28 08:17:35;;;;;;;0.52;0.43;;;;;;;31.44;32.86;99427.56;5046622;28;20081;-61
2023/07/28 08:20:00;;;;;;;0.90;0.45;;;;;;;31.26;33.38;99428.59;5047335;28;20047;-61
2023/07/28 08:22:26;;;;;;;1.40;0.82;;;;;;;30.95;32.41;99425.84;5046721;28;20064;-62
2023/07/28 08:24:52;;;;;;;1.08;0.45;;;;;;;30.95;33.10;99420.50;5046716;28;20362;-61
2023/07/28 08:27:18;;;;;;;1.63;0.50;;;;;;;31.57;33.02;99426.19;5046627;28;20105;-61
2023/07/28 08:29:43;;;;;;;0.20;0.20;;;;;;;31.52;32.47;99421.31;5046671;28;20050;-61
2023/07/28 08:32:09;;;;;;;0.95;0.55;;;;;;;31.09;32.61;99427.81;5046702;28;20027;-61
2023/07/28 08:34:34;;;;;;;0.38;0.30;;;;;;;30.29;32.07;99432.88;5046234;28;20028;-61
2023/07/28 08:36:59;;;;;;;1.05;0.30;;;;;;;29.23;33.17;99435.88;5046619;28;20026;-61
2023/07/28 08:39:25;;;;;;;0.52;0.50;;;;;;;29.31;33.69;99430.56;5046586;28;20022;-61
2023/07/28 08:42:01;;;;;;;3.08;0.55;;;;;;;30.29;32.96;99416.81;5046458;28;20056;-61
2023/07/28 08:44:29;;;;;;;3.53;0.52;;;;;;;30.17;31.59;99432.34;5046941;28;20033;-61
2023/07/28 08:46:54;;;;;;;1.52;0.57;;;;;;;29.17;32.66;99435.50;5046816;28;20020;-61
2023/07/28 08:49:21;;;;;;;0.52;0.40;;;;;;;28.42;33.57;99442.13;5046492;28;20108;-60
2023/07/28 08:51:58;;;;;;;0.68;0.40;;;;;;;28.31;34.63;99437.81;5046233;28;20023;-60
2023/07/28 08:54:24;;;;;;;1.05;0.88;;;;;;;28.42;33.56;99429.63;5046168;28;20539;-60
2023/07/28 08:56:50;;;;;;;0.52;0.40;;;;;;;27.90;34.06;99436.44;5046232;28;20033;-60
2023/07/28 08:59:26;;;;;;;0.55;0.45;;;;;;;27.19;35.22;99436.88;5045984;28;20444;-61
2023/07/28 09:02:01;;;;;;;0.80;0.40;;;;;;;27.70;35.40;99428.53;5046036;28;20025;-60
2023/07/28 09:04:27;;;;;;;0.75;0.57;;;;;;;28.35;34.31;99430.38;5046056;28;20052;-61
2023/07/28 09:06:52;;;;;;;0.82;0.50;;;;;;;29.28;34.37;99429.03;5046048;28;20081;-61
2023/07/28 09:09:21;;;;;;;1.63;0.82;;;;;;;30.02;32.82;99421.44;5045866;28;20203;-61
2023/07/28 09:11:52;;;;;;;1.00;0.43;;;;;;;30.60;32.07;99434.06;5027765;28;20088;-61
2023/07/28 09:14:19;;;;;;;1.38;0.50;;;;;;;31.21;31.66;99428.31;5045914;28;20042;-61
2023/07/28 09:16:47;;;;;;;1.15;0.43;;;;;;;31.95;31.29;99423.63;5045999;28;20029;-62
2023/07/28 09:19:13;;;;;;;0.95;0.50;;;;;;;32.30;29.62;99423.25;5045656;28;20033;-62
2023/07/28 09:21:41;;;;;;;0.28;0.25;;;;;;;32.63;29.29;99427.53;5045616;28;20493;-62
2023/07/28 09:24:09;;;;;;;0.20;0.20;;;;;;;32.64;29.51;99427.34;5045993;28;20060;-60
2023/07/28 09:26:38;;;;;;;0.68;0.40;;;;;;;32.52;28.32;99431.47;5045754;28;20079;-61
2023/07/28 09:29:23;;;;;;;2.25;0.50;;;;;;;32.76;28.29;99437.66;5045392;28;20068;-61
2023/07/28 09:31:50;;;;;;;0.40;0.30;;;;;;;32.80;27.86;99432.75;5045489;28;20128;-62
2023/07/28 09:34:28;;;;;;;0.25;0.20;;;;;;;32.98;26.52;99432.38;5045368;28;20026;-62
2023/07/28 09:36:54;;;;;;;1.13;0.40;;;;;;;33.44;26.30;99443.97;5045627;28;20028;-61
2023/07/28 09:39:20;;;;;;;1.38;0.40;;;;;;;33.43;27.40;99440.47;5045308;28;20029;-61
2023/07/28 09:41:46;;;;;;;0.40;0.30;;;;;;;33.68;27.20;99442.88;5045373;28;20026;-61
2023/07/28 09:44:12;;;;;;;0.20;0.20;;;;;;;33.55;26.32;99446.19;5045289;28;20021;-62
2023/07/28 09:46:51;;;;;;;0.40;0.38;;;;;;;33.74;27.09;99444.00;5045205;28;20024;-61
2023/07/28 09:49:35;;;;;;;0.30;0.30;;;;;;;33.48;25.84;99447.97;5027508;28;20481;-62
2023/07/28 09:52:04;;;;;;;0.43;0.40;;;;;;;33.41;26.86;99444.34;5027565;28;20033;-61
2023/07/28 09:54:33;;;;;;;0.22;0.22;;;;;;;33.36;27.25;99447.59;5045361;28;20381;-62
2023/07/28 09:56:59;;;;;;;0.30;0.30;;;;;;;33.57;27.21;99446.84;5045332;28;20108;-61
2023/07/28 09:59:41;;;;;;;0.32;0.28;;;;;;;33.60;26.57;99449.16;5045323;28;20030;-61
2023/07/28 10:02:08;;;;;;;0.73;0.47;;;;;;;33.36;26.43;99451.16;5045383;28;20032;-61
2023/07/28 10:04:34;;;;;;;0.20;0.20;;;;;;;32.99;27.07;99447.50;5045259;28;20033;-62
2023/07/28 10:07:01;;;;;;;1.27;0.40;;;;;;;32.70;26.88;99447.25;5045452;28;20017;-61
2023/07/28 10:09:30;;;;;;;0.50;0.32;;;;;;;32.69;27.28;99452.81;5027344;28;20083;-62
2023/07/28 10:11:55;;;;;;;0.40;0.35;;;;;;;32.69;27.21;99453.66;5045045;28;20074;-62
2023/07/28 10:14:31;;;;;;;0.73;0.40;;;;;;;32.88;27.18;99459.53;5044915;28;20132;-61
2023/07/28 10:16:58;;;;;;;0.20;0.20;;;;;;;33.11;26.84;99448.75;5044929;28;20057;-61
2023/07/28 10:19:26;;;;;;;0.40;0.30;;;;;;;32.92;27.00;99444.72;5045232;28;20025;-61
2023/07/28 10:22:05;;;;;;;0.73;0.65;;;;;;;33.02;26.97;99453.34;5045070;28;20517;-60
2023/07/28 10:24:54;;;;;;;2.50;0.45;;;;;;;33.08;26.72;99451.81;5045141;28;20030;-62
2023/07/28 10:27:34;;;;;;;0.30;0.30;;;;;;;32.96;26.69;99448.69;5044756;28;20043;-61
2023/07/28 10:30:04;;;;;;;0.40;0.38;;;;;;;33.08;27.10;99446.44;5046024;28;20032;-62
2023/07/28 10:32:37;;;;;;;0.30;0.30;;;;;;;32.83;26.68;99446.63;5049195;28;20161;-62
2023/07/28 10:35:07;;;;;;;0.25;0.20;;;;;;;32.74;26.64;99448.59;5048866;28;20030;-61
2023/07/28 10:37:33;;;;;;;0.40;0.40;;;;;;;32.81;26.89;99451.38;5048983;28;20091;-61
2023/07/28 10:40:27;;;;;;;1.83;0.50;;;;;;;32.58;27.04;99452.25;5048827;28;20045;-62
2023/07/28 10:42:54;;;;;;;0.50;0.30;;;;;;;32.43;27.06;99459.41;5048535;28;20017;-61
2023/07/28 10:45:20;;;;;;;1.00;0.50;;;;;;;32.33;27.26;99455.13;5048795;28;20029;-60
2023/07/28 10:47:47;;;;;;;0.43;0.40;;;;;;;32.42;27.53;99452.34;5031150;28;20076;-61
2023/07/28 10:50:14;;;;;;;0.95;0.60;;;;;;;32.24;27.61;99450.78;5048407;28;20104;-61
2023/07/28 10:52:44;;;;;;;0.55;0.28;;;;;;;32.20;27.19;99446.81;5048790;28;20540;-61
2023/07/28 10:55:18;;;;;;;2.03;0.32;;;;;;;32.45;27.40;99457.34;5048725;28;20038;-61
2023/07/28 10:57:45;;;;;;;0.47;0.43;;;;;;;32.38;27.13;99458.06;5048193;28;20030;-62
2023/07/28 11:00:12;;;;;;;0.85;0.40;;;;;;;32.28;27.62;99462.88;5048522;28;20029;-62
2023/07/28 11:02:48;;;;;;;0.20;0.20;;;;;;;31.68;27.73;99457.16;5048356;28;20028;-61
2023/07/28 11:05:22;;;;;;;0.70;0.43;;;;;;;30.87;28.75;99462.38;5048359;28;20027;-61
2023/07/28 11:07:49;;;;;;;1.08;0.70;;;;;;;29.99;29.97;99452.06;5048294;28;20029;-61
2023/07/28 11:10:15;;;;;;;0.70;0.40;;;;;;;29.15;31.65;99458.03;5048375;28;20196;-61
2023/07/28 11:12:44;;;;;;;1.45;0.50;;;;;;;28.39;32.20;99456.59;5048526;28;20463;-61
2023/07/28 11:15:11;;;;;;;0.20;0.20;;;;;;;27.45;33.79;99470.00;5047706;28;20045;-61
2023/07/28 11:17:39;;;;;;;0.50;0.50;;;;;;;26.91;34.49;99466.06;5048084;28;20026;-61
2023/07/28 11:20:28;;;;;;;2.13;0.57;;;;;;;26.10;35.48;99454.69;5048138;28;20025;-61
2023/07/28 11:23:05;;;;;;;0.22;0.22;;;;;;;25.53;36.20;99466.66;5047908;28;20060;-60
2023/07/28 11:25:32;;;;;;;0.82;0.50;;;;;;;25.04;36.77;99455.78;5047999;28;20028;-61
2023/07/28 11:28:00;;;;;;;5.03;0.77;;;;;;;24.65;37.84;99466.97;5047766;28;20036;-61
2023/07/28 11:30:26;;;;;;;1.63;0.50;;;;;;;24.26;38.83;99463.84;5047866;28;20392;-60
2023/07/28 11:32:53;;;;;;;0.55;0.40;;;;;;;23.98;38.99;99459.88;5047678;28;20025;-61